createdAt,value
2023-05-17T00:00:33.828Z,83.178711
2023-05-17T00:01:43.475Z,83.380127
2023-05-17T00:02:53.181Z,83.074951
2023-05-17T00:04:02.801Z,83.074951
2023-05-17T00:05:12.408Z,82.458496
2023-05-17T00:06:22.074Z,82.15332
2023-05-17T00:07:31.681Z,81.68335
2023-05-17T00:08:41.309Z,82.25708
2023-05-17T00:09:50.924Z,81.951904
2023-05-17T00:11:00.732Z,82.666016
2023-05-17T00:12:10.304Z,81.90918
2023-05-17T00:13:20.041Z,81.439209
2023-05-17T00:14:29.576Z,81.439209
2023-05-17T00:15:39.313Z,81.744385
2023-05-17T00:16:48.963Z,81.439209
2023-05-17T00:17:58.660Z,81.335449
2023-05-17T00:19:08.277Z,82.049561
2023-05-17T00:20:17.902Z,82.458496
2023-05-17T00:21:27.617Z,82.15332
2023-05-17T00:22:37.232Z,81.646729
2023-05-17T00:23:46.844Z,81.646729
2023-05-17T00:24:56.487Z,82.15332
2023-05-17T00:26:06.139Z,82.15332
2023-05-17T00:27:15.777Z,81.951904
2023-05-17T00:28:25.501Z,81.237793
2023-05-17T00:29:35.082Z,82.15332
2023-05-17T00:30:44.711Z,81.68335
2023-05-17T00:31:54.333Z,81.884766
2023-05-17T00:33:03.964Z,81.787109
2023-05-17T00:34:13.603Z,82.501221
2023-05-17T00:35:23.339Z,81.787109
2023-05-17T00:36:32.968Z,81.646729
2023-05-17T00:37:42.694Z,81.378174
2023-05-17T00:38:52.362Z,81.378174
2023-05-17T00:40:02.015Z,81.274414
2023-05-17T00:41:11.633Z,81.170654
2023-05-17T00:42:21.254Z,81.005859
2023-05-17T00:43:31.000Z,81.414795
2023-05-17T00:44:40.555Z,81.512451
2023-05-17T00:45:50.188Z,81.47583
2023-05-17T00:46:59.873Z,81.274414
2023-05-17T00:48:09.487Z,81.68335
2023-05-17T00:49:19.094Z,81.68335
2023-05-17T00:50:28.730Z,81.988525
2023-05-17T00:51:38.334Z,81.57959
2023-05-17T00:52:48.006Z,81.47583
2023-05-17T00:53:57.660Z,81.68335
2023-05-17T00:55:07.283Z,80.657959
2023-05-17T00:56:16.896Z,80.865479
2023-05-17T00:57:26.551Z,80.761719
2023-05-17T00:58:36.296Z,80.560303
2023-05-17T00:59:45.812Z,80.865479
2023-05-17T01:00:55.431Z,80.969238
2023-05-17T01:02:05.071Z,80.865479
2023-05-17T01:03:14.740Z,80.493164
2023-05-17T01:04:24.351Z,80.352783
2023-05-17T01:05:33.956Z,80.761719
2023-05-17T01:06:43.619Z,79.980469
2023-05-17T01:07:53.263Z,80.285645
2023-05-17T01:09:02.889Z,80.285645
2023-05-17T01:10:12.529Z,80.596924
2023-05-17T01:11:22.169Z,80.596924
2023-05-17T01:12:31.826Z,81.274414
2023-05-17T01:13:41.609Z,80.761719
2023-05-17T01:14:52.098Z,79.638672
2023-05-17T01:16:01.789Z,80.493164
2023-05-17T01:17:11.404Z,79.742432
2023-05-17T01:18:28.229Z,79.943848
2023-05-17T01:19:37.986Z,79.943848
2023-05-17T01:20:47.613Z,80.249023
2023-05-17T01:21:57.340Z,80.047607
2023-05-17T01:23:07.067Z,79.742432
2023-05-17T01:24:16.770Z,79.742432
2023-05-17T01:25:26.589Z,80.151367
2023-05-17T01:26:35.243Z,80.047607
2023-05-17T01:27:44.924Z,79.229736
2023-05-17T01:28:54.721Z,80.493164
2023-05-17T01:30:04.351Z,79.840088
2023-05-17T01:31:14.101Z,80.151367
2023-05-17T01:32:23.825Z,79.431152
2023-05-17T01:33:33.618Z,79.266357
2023-05-17T01:34:43.258Z,79.779053
2023-05-17T01:35:53.017Z,79.980469
2023-05-17T01:37:02.708Z,79.504395
2023-05-17T01:38:12.405Z,79.980469
2023-05-17T01:39:22.120Z,80.389404
2023-05-17T01:40:31.871Z,79.266357
2023-05-17T01:41:41.597Z,79.815674
2023-05-17T01:42:51.281Z,79.876709
2023-05-17T01:44:00.036Z,79.504395
2023-05-17T01:45:09.865Z,79.058838
2023-05-17T01:46:19.570Z,78.753662
2023-05-17T01:47:29.282Z,78.961182
2023-05-17T01:48:39.019Z,79.058838
2023-05-17T01:49:48.739Z,79.876709
2023-05-17T01:50:58.439Z,78.894043
2023-05-17T01:52:08.135Z,79.370117
2023-05-17T01:53:17.867Z,78.753662
2023-05-17T01:54:27.637Z,78.649902
2023-05-17T01:55:36.334Z,78.961182
2023-05-17T01:56:45.991Z,79.058838
2023-05-17T01:57:55.701Z,79.779053
2023-05-17T01:59:04.604Z,79.162598
2023-05-17T02:00:14.227Z,79.876709
2023-05-17T02:01:23.911Z,78.686523
2023-05-17T02:02:33.654Z,79.302979
2023-05-17T02:03:43.473Z,79.406738
2023-05-17T02:04:53.101Z,79.571533
2023-05-17T02:06:02.787Z,79.571533
2023-05-17T02:07:12.504Z,79.199219
2023-05-17T02:08:20.229Z,79.815674
2023-05-17T02:09:29.936Z,79.467773
2023-05-17T02:10:39.639Z,79.571533
2023-05-17T02:11:49.335Z,78.894043
2023-05-17T02:12:59.110Z,80.12085
2023-05-17T02:14:09.046Z,80.187988
2023-05-17T02:15:18.500Z,80.596924
2023-05-17T02:16:27.200Z,79.779053
2023-05-17T02:17:37.007Z,79.504395
2023-05-17T02:18:46.750Z,79.815674
2023-05-17T02:19:56.396Z,80.285645
2023-05-17T02:21:06.062Z,80.084229
2023-05-17T02:22:15.808Z,79.876709
2023-05-17T02:23:25.525Z,79.370117
2023-05-17T02:24:35.210Z,80.084229
2023-05-17T02:25:43.930Z,80.389404
2023-05-17T02:26:52.657Z,79.748535
2023-05-17T02:28:02.364Z,80.834961
2023-05-17T02:29:11.065Z,80.596924
2023-05-17T02:30:20.820Z,80.493164
2023-05-17T02:31:30.447Z,80.187988
2023-05-17T02:32:40.233Z,80.328369
2023-05-17T02:33:49.951Z,80.426025
2023-05-17T02:34:58.585Z,80.529785
2023-05-17T02:36:07.313Z,80.596924
2023-05-17T02:37:17.021Z,80.69458
2023-05-17T02:38:26.727Z,81.005859
2023-05-17T02:39:36.749Z,81.311035
2023-05-17T02:40:46.561Z,80.69458
2023-05-17T02:41:56.278Z,80.187988
2023-05-17T02:43:05.976Z,79.675293
2023-05-17T02:44:15.667Z,80.389404
2023-05-17T02:45:25.492Z,80.69458
2023-05-17T02:46:36.959Z,80.285645
2023-05-17T02:47:43.788Z,80.187988
2023-05-17T02:48:53.458Z,79.779053
2023-05-17T02:50:03.195Z,80.084229
2023-05-17T02:51:11.887Z,80.633545
2023-05-17T02:52:20.577Z,79.571533
2023-05-17T02:53:31.278Z,79.370117
2023-05-17T02:54:41.009Z,79.058838
2023-05-17T02:55:50.723Z,80.493164
2023-05-17T02:56:58.418Z,80.084229
2023-05-17T02:58:08.115Z,79.571533
2023-05-17T02:59:16.857Z,79.638672
2023-05-17T03:00:26.558Z,79.638672
2023-05-17T03:01:36.342Z,78.753662
2023-05-17T03:02:46.084Z,78.857422
2023-05-17T03:03:55.792Z,78.961182
2023-05-17T03:05:04.433Z,79.675293
2023-05-17T03:06:14.135Z,79.266357
2023-05-17T03:07:23.840Z,78.961182
2023-05-17T03:08:32.601Z,78.588867
2023-05-17T03:09:42.324Z,78.240967
2023-05-17T03:10:51.033Z,78.649902
2023-05-17T03:11:59.741Z,78.857422
2023-05-17T03:13:09.456Z,79.095459
2023-05-17T03:14:19.195Z,78.649902
2023-05-17T03:15:29.053Z,78.753662
2023-05-17T03:16:38.769Z,77.972412
2023-05-17T03:17:48.568Z,78.137207
2023-05-17T03:18:58.331Z,78.076172
2023-05-17T03:20:07.988Z,78.588867
2023-05-17T03:21:17.644Z,78.790283
2023-05-17T03:22:27.486Z,78.686523
2023-05-17T03:23:36.222Z,78.686523
2023-05-17T03:24:45.928Z,78.997803
2023-05-17T03:25:55.621Z,78.240967
2023-05-17T03:27:05.442Z,78.137207
2023-05-17T03:28:14.135Z,78.344727
2023-05-17T03:29:23.853Z,78.137207
2023-05-17T03:30:32.570Z,77.630615
2023-05-17T03:31:42.416Z,78.381348
2023-05-17T03:32:52.221Z,78.790283
2023-05-17T03:33:59.961Z,78.649902
2023-05-17T03:35:09.574Z,78.448486
2023-05-17T03:36:19.291Z,78.649902
2023-05-17T03:37:28.063Z,78.344727
2023-05-17T03:38:37.770Z,77.728271
2023-05-17T03:39:46.480Z,77.935791
2023-05-17T03:40:56.168Z,78.039551
2023-05-17T03:42:04.918Z,78.277588
2023-05-17T03:43:13.632Z,78.790283
2023-05-17T03:44:23.316Z,77.972412
2023-05-17T03:45:32.984Z,78.240967
2023-05-17T03:46:42.680Z,78.552246
2023-05-17T03:47:51.476Z,78.961182
2023-05-17T03:49:01.123Z,79.162598
2023-05-17T03:50:10.788Z,79.467773
2023-05-17T03:51:20.637Z,78.344727
2023-05-17T03:52:30.353Z,77.935791
2023-05-17T03:53:40.070Z,78.039551
2023-05-17T03:54:49.755Z,78.039551
2023-05-17T03:55:59.519Z,78.552246
2023-05-17T03:57:09.231Z,78.039551
2023-05-17T03:58:17.961Z,78.137207
2023-05-17T03:59:27.655Z,77.935791
2023-05-17T04:00:35.419Z,77.935791
2023-05-17T04:01:45.249Z,78.344727
2023-05-17T04:02:55.022Z,77.630615
2023-05-17T04:04:04.695Z,77.630615
2023-05-17T04:05:14.409Z,77.728271
2023-05-17T04:06:24.124Z,77.593994
2023-05-17T04:07:33.858Z,76.9104
2023-05-17T04:08:43.583Z,78.137207
2023-05-17T04:09:53.327Z,77.526855
2023-05-17T04:11:02.027Z,77.01416
2023-05-17T04:12:11.740Z,77.154541
2023-05-17T04:13:20.423Z,76.745605
2023-05-17T04:14:30.215Z,76.843262
2023-05-17T04:15:39.961Z,77.563477
2023-05-17T04:16:48.717Z,76.434326
2023-05-17T04:17:58.556Z,76.745605
2023-05-17T04:19:08.257Z,77.258301
2023-05-17T04:20:17.878Z,77.630615
2023-05-17T04:21:27.647Z,77.11792
2023-05-17T04:22:37.318Z,77.01416
2023-05-17T04:23:47.086Z,76.708984
2023-05-17T04:24:56.795Z,76.403809
2023-05-17T04:26:05.586Z,76.812744
2023-05-17T04:27:15.286Z,77.081299
2023-05-17T04:28:25.036Z,77.081299
2023-05-17T04:29:34.785Z,77.386475
2023-05-17T04:30:44.479Z,76.977539
2023-05-17T04:31:54.187Z,76.568604
2023-05-17T04:33:04.193Z,76.263428
2023-05-17T04:34:13.701Z,75.549316
2023-05-17T04:35:23.382Z,75.750732
2023-05-17T04:36:33.111Z,76.568604
2023-05-17T04:37:42.963Z,76.470947
2023-05-17T04:38:52.759Z,75.140381
2023-05-17T04:40:02.547Z,75.653076
2023-05-17T04:41:12.224Z,76.531982
2023-05-17T04:42:22.006Z,76.843262
2023-05-17T04:43:31.811Z,75.817871
2023-05-17T04:44:41.519Z,75.714111
2023-05-17T04:45:51.295Z,75.512695
2023-05-17T04:46:59.966Z,75.714111
2023-05-17T04:48:10.005Z,76.025391
2023-05-17T04:49:19.545Z,76.739502
2023-05-17T04:50:29.228Z,76.739502
2023-05-17T04:51:38.972Z,75.958252
2023-05-17T04:52:47.651Z,77.490234
2023-05-17T04:53:56.318Z,79.290771
2023-05-17T04:55:05.982Z,76.226807
2023-05-17T04:56:15.653Z,77.758789
2023-05-17T04:57:25.361Z,76.843262
2023-05-17T04:58:34.005Z,77.008057
2023-05-17T04:59:42.724Z,77.624512
2023-05-17T05:00:52.366Z,77.215576
2023-05-17T05:02:02.110Z,77.313232
2023-05-17T05:03:11.796Z,77.215576
2023-05-17T05:04:21.634Z,75.476074
2023-05-17T05:05:30.264Z,76.190186
2023-05-17T05:06:39.809Z,76.092529
2023-05-17T05:07:49.457Z,75.067139
2023-05-17T05:08:57.110Z,75.98877
2023-05-17T05:10:06.766Z,75.067139
2023-05-17T05:11:16.444Z,74.725342
2023-05-17T05:12:26.105Z,76.464844
2023-05-17T05:13:34.757Z,76.5625
2023-05-17T05:14:43.413Z,74.249268
2023-05-17T05:15:53.107Z,75.274658
2023-05-17T05:17:00.782Z,75.067139
2023-05-17T05:18:09.503Z,75.134277
2023-05-17T05:19:19.337Z,75.476074
2023-05-17T05:20:28.021Z,74.560547
2023-05-17T05:21:35.413Z,73.840332
2023-05-17T05:22:43.099Z,74.969482
2023-05-17T05:23:52.744Z,74.761963
2023-05-17T05:25:02.446Z,76.464844
2023-05-17T05:26:11.093Z,75.238037
2023-05-17T05:27:18.745Z,73.913574
2023-05-17T05:28:28.412Z,75.543213
2023-05-17T05:29:37.084Z,74.420166
2023-05-17T05:30:45.747Z,73.364258
2023-05-17T05:31:54.414Z,73.571777
2023-05-17T05:33:04.157Z,72.381592
2023-05-17T05:34:13.870Z,72.344971
2023-05-17T05:35:22.403Z,73.773193
2023-05-17T05:36:31.170Z,74.591064
2023-05-17T05:37:40.722Z,74.859619
2023-05-17T05:38:50.393Z,72.821045
2023-05-17T05:39:59.043Z,72.821045
2023-05-17T05:41:07.740Z,70.172119
2023-05-17T05:42:16.417Z,72.412109
2023-05-17T05:43:26.113Z,71.496582
2023-05-17T05:44:33.793Z,72.381592
2023-05-17T05:45:42.465Z,71.77124
2023-05-17T05:46:52.128Z,72.650146
2023-05-17T05:48:00.875Z,70.611572
2023-05-17T05:49:09.578Z,70.513916
2023-05-17T05:50:19.179Z,71.124268
2023-05-17T05:51:28.851Z,71.936035
2023-05-17T05:52:38.638Z,70.715332
2023-05-17T05:53:47.220Z,70.849609
2023-05-17T05:54:54.875Z,71.77124
2023-05-17T05:56:04.533Z,71.77124
2023-05-17T05:57:13.219Z,71.057129
2023-05-17T05:58:21.876Z,71.734619
2023-05-17T05:59:31.562Z,71.020508
2023-05-17T06:00:40.218Z,70.544434
2023-05-17T06:01:49.996Z,69.830322
2023-05-17T06:02:58.702Z,70.953369
2023-05-17T06:04:07.316Z,72.076416
2023-05-17T06:05:16.985Z,72.241211
2023-05-17T06:06:25.760Z,73.059082
2023-05-17T06:07:35.466Z,72.44873
2023-05-17T06:08:44.228Z,72.412109
2023-05-17T06:09:52.838Z,69.897461
2023-05-17T06:11:02.497Z,70.343018
2023-05-17T06:12:10.196Z,70.74585
2023-05-17T06:13:18.806Z,70.74585
2023-05-17T06:14:28.468Z,70.74585
2023-05-17T06:15:37.115Z,71.124268
2023-05-17T06:16:46.802Z,69.628906
2023-05-17T06:17:55.516Z,70.953369
2023-05-17T06:19:05.234Z,71.124268
2023-05-17T06:20:15.777Z,70.684814
2023-05-17T06:21:23.475Z,70.581055
2023-05-17T06:22:33.112Z,69.866943
2023-05-17T06:23:42.771Z,70.074463
2023-05-17T06:24:51.650Z,68.847656
2023-05-17T06:26:00.122Z,68.133545
2023-05-17T06:27:09.783Z,69.458008
2023-05-17T06:28:18.572Z,68.237305
2023-05-17T06:29:28.112Z,68.713379
2023-05-17T06:30:36.924Z,67.596436
2023-05-17T06:31:44.609Z,69.628906
2023-05-17T06:32:54.298Z,70.617676
2023-05-17T06:34:02.942Z,68.579102
2023-05-17T06:35:10.624Z,68.481445
2023-05-17T06:36:19.282Z,68.273926
2023-05-17T06:37:27.930Z,67.596436
2023-05-17T06:38:37.592Z,68.511963
2023-05-17T06:39:51.597Z,68.988037
2023-05-17T06:40:58.358Z,68.07251
2023-05-17T06:42:07.741Z,68.920898
2023-05-17T06:43:16.361Z,69.122314
2023-05-17T06:44:26.031Z,69.189453
2023-05-17T06:45:34.706Z,68.579102
2023-05-17T06:46:44.338Z,68.85376
2023-05-17T06:47:53.064Z,67.907715
2023-05-17T06:49:01.907Z,67.706299
2023-05-17T06:50:11.409Z,67.803955
2023-05-17T06:51:21.122Z,67.401123
2023-05-17T06:52:30.797Z,67.602539
2023-05-17T06:53:40.479Z,68.615723
2023-05-17T06:54:48.166Z,67.468262
2023-05-17T06:55:57.815Z,67.059326
2023-05-17T06:57:06.568Z,66.656494
2023-05-17T06:58:15.128Z,66.18042
2023-05-17T06:59:24.836Z,67.498779
2023-05-17T07:00:32.757Z,65.771484
2023-05-17T07:01:42.144Z,66.107178
2023-05-17T07:02:51.822Z,67.126465
2023-05-17T07:04:01.548Z,67.877197
2023-05-17T07:05:11.208Z,66.760254
2023-05-17T07:06:19.787Z,67.974854
2023-05-17T07:07:28.478Z,68.554688
2023-05-17T07:08:38.188Z,68.145752
2023-05-17T07:09:45.832Z,66.320801
2023-05-17T07:10:54.490Z,65.985107
2023-05-17T07:12:04.149Z,65.301514
2023-05-17T07:13:13.014Z,65.203857
2023-05-17T07:14:22.166Z,65.814209
2023-05-17T07:15:32.007Z,65.405273
2023-05-17T07:16:39.491Z,65.911865
2023-05-17T07:17:49.277Z,66.796875
2023-05-17T07:18:58.017Z,66.693115
2023-05-17T07:20:05.646Z,65.783691
2023-05-17T07:21:15.250Z,65.405273
2023-05-17T07:22:24.935Z,67.333984
2023-05-17T07:23:33.592Z,67.504883
2023-05-17T07:24:43.234Z,66.693115
2023-05-17T07:25:52.086Z,66.290283
2023-05-17T07:27:01.790Z,65.203857
2023-05-17T07:28:09.445Z,66.827393
2023-05-17T07:29:18.215Z,65.100098
2023-05-17T07:30:27.887Z,65.234375
2023-05-17T07:31:37.438Z,66.217041
2023-05-17T07:32:46.117Z,66.796875
2023-05-17T07:33:54.750Z,64.459229
2023-05-17T07:35:03.408Z,64.459229
2023-05-17T07:36:13.127Z,64.361572
2023-05-17T07:37:20.742Z,64.361572
2023-05-17T07:38:27.414Z,63.952637
2023-05-17T07:39:37.091Z,63.140869
2023-05-17T07:40:45.805Z,64.154053
2023-05-17T07:41:55.224Z,63.824463
2023-05-17T07:43:02.867Z,63.922119
2023-05-17T07:44:11.515Z,63.317871
2023-05-17T07:45:21.325Z,64.428711
2023-05-17T07:46:29.912Z,63.214111
2023-05-17T07:47:37.627Z,63.647461
2023-05-17T07:48:47.375Z,64.257812
2023-05-17T07:49:56.987Z,63.549805
2023-05-17T07:51:05.648Z,63.781738
2023-05-17T07:52:14.288Z,64.459229
2023-05-17T07:53:22.951Z,64.18457
2023-05-17T07:54:32.644Z,64.971924
2023-05-17T07:55:40.285Z,63.549805
2023-05-17T07:56:50.130Z,65.06958
2023-05-17T07:58:00.336Z,64.562988
2023-05-17T07:59:10.000Z,64.154053
2023-05-17T08:00:19.869Z,63.549805
2023-05-17T08:01:29.571Z,64.025879
2023-05-17T08:02:38.213Z,63.690186
2023-05-17T08:03:48.133Z,61.560059
2023-05-17T08:04:56.614Z,61.895752
2023-05-17T08:06:04.247Z,62.268066
2023-05-17T08:07:13.860Z,62.475586
2023-05-17T08:08:23.498Z,61.865234
2023-05-17T08:09:33.199Z,62.036133
2023-05-17T08:10:41.888Z,62.719727
2023-05-17T08:11:50.533Z,62.561035
2023-05-17T08:13:00.213Z,61.413574
2023-05-17T08:14:07.974Z,59.320068
2023-05-17T08:15:15.626Z,60.198975
2023-05-17T08:16:25.277Z,60.272217
2023-05-17T08:17:33.994Z,60.046387
2023-05-17T08:18:43.984Z,59.844971
2023-05-17T08:19:52.302Z,59.509277
2023-05-17T08:21:00.930Z,60.522461
2023-05-17T08:22:09.587Z,57.891846
2023-05-17T08:23:17.893Z,58.270264
2023-05-17T08:24:26.555Z,56.756592
2023-05-17T08:25:37.249Z,58.648682
2023-05-17T08:26:45.829Z,56.726074
2023-05-17T08:27:54.558Z,58.270264
2023-05-17T08:29:04.211Z,58.03833
2023-05-17T08:30:18.074Z,57.232666
2023-05-17T08:31:24.522Z,56.524658
2023-05-17T08:32:33.237Z,56.500244
2023-05-17T08:33:41.906Z,57.910156
2023-05-17T08:34:51.581Z,56.225586
2023-05-17T08:36:01.290Z,56.933594
2023-05-17T08:37:10.950Z,57.4646
2023-05-17T08:38:20.750Z,57.891846
2023-05-17T08:39:28.218Z,57.995605
2023-05-17T08:40:36.931Z,57.720947
2023-05-17T08:41:45.653Z,57.617188
2023-05-17T08:42:55.274Z,59.338379
2023-05-17T08:44:03.926Z,57.440186
2023-05-17T08:45:11.578Z,58.325195
2023-05-17T08:46:21.302Z,58.630371
2023-05-17T08:47:30.088Z,56.811523
2023-05-17T08:48:38.639Z,55.291748
2023-05-17T08:49:48.213Z,57.415771
2023-05-17T08:50:56.914Z,57.415771
2023-05-17T08:52:06.558Z,57.818604
2023-05-17T08:53:14.256Z,58.02002
2023-05-17T08:54:21.860Z,56.90918
2023-05-17T08:55:31.548Z,57.720947
2023-05-17T08:56:40.323Z,57.592773
2023-05-17T08:57:49.946Z,58.374023
2023-05-17T08:58:59.619Z,58.850098
2023-05-17T09:00:08.335Z,57.739258
2023-05-17T09:01:18.036Z,57.434082
2023-05-17T09:02:27.770Z,57.611084
2023-05-17T09:03:35.593Z,56.47583
2023-05-17T09:04:45.128Z,56.47583
2023-05-17T09:05:53.903Z,56.549072
2023-05-17T09:07:02.404Z,56.976318
2023-05-17T09:08:11.065Z,55.664062
2023-05-17T09:09:20.700Z,56.37207
2023-05-17T09:10:30.504Z,55.493164
2023-05-17T09:11:38.122Z,57.305908
2023-05-17T09:12:46.793Z,56.298828
2023-05-17T09:13:56.524Z,56.097412
2023-05-17T09:15:05.375Z,57.48291
2023-05-17T09:16:14.014Z,55.767822
2023-05-17T09:17:23.713Z,55.767822
2023-05-17T09:18:32.403Z,56.445312
2023-05-17T09:19:42.124Z,53.900146
2023-05-17T09:20:50.667Z,54.681396
2023-05-17T09:21:59.375Z,54.785156
2023-05-17T09:23:09.038Z,56.164551
2023-05-17T09:24:18.737Z,55.432129
2023-05-17T09:25:29.365Z,53.601074
2023-05-17T09:26:39.028Z,53.448486
2023-05-17T09:27:48.678Z,53.173828
2023-05-17T09:28:58.419Z,54.858398
2023-05-17T09:30:06.073Z,55.26123
2023-05-17T09:31:13.707Z,54.455566
2023-05-17T09:32:23.426Z,54.327393
2023-05-17T09:33:33.095Z,56.750488
2023-05-17T09:34:41.703Z,55.389404
2023-05-17T09:35:50.364Z,55.059814
2023-05-17T09:37:00.015Z,55.664062
2023-05-17T09:38:09.753Z,53.948975
2023-05-17T09:39:19.379Z,54.754639
2023-05-17T09:40:28.027Z,53.399658
2023-05-17T09:41:37.750Z,55.187988
2023-05-17T09:42:47.460Z,55.187988
2023-05-17T09:43:57.106Z,53.271484
2023-05-17T09:45:06.776Z,54.180908
2023-05-17T09:46:15.408Z,55.487061
2023-05-17T09:47:24.131Z,54.351807
2023-05-17T09:48:32.839Z,55.560303
2023-05-17T09:49:42.431Z,54.858398
2023-05-17T09:50:52.098Z,54.632568
2023-05-17T09:52:00.779Z,57.122803
2023-05-17T09:53:10.512Z,55.59082
2023-05-17T09:54:20.207Z,55.761719
2023-05-17T09:55:29.156Z,54.25415
2023-05-17T09:56:38.537Z,54.125977
2023-05-17T09:57:47.264Z,54.47998
2023-05-17T09:58:55.921Z,52.416992
2023-05-17T10:00:05.651Z,51.190186
2023-05-17T10:01:14.314Z,50.964355
2023-05-17T10:02:24.023Z,52.996826
2023-05-17T10:03:33.809Z,52.593994
2023-05-17T10:04:43.305Z,51.867676
2023-05-17T10:05:52.975Z,51.641846
2023-05-17T10:07:01.660Z,51.062012
2023-05-17T10:08:09.319Z,50.964355
2023-05-17T10:09:18.967Z,49.981689
2023-05-17T10:10:27.647Z,51.391602
2023-05-17T10:11:36.291Z,52.215576
2023-05-17T10:12:44.935Z,52.319336
2023-05-17T10:13:53.581Z,51.989746
2023-05-17T10:15:03.254Z,50.561523
2023-05-17T10:16:10.880Z,52.819824
2023-05-17T10:17:19.538Z,50.891113
2023-05-17T10:18:29.308Z,52.368164
2023-05-17T10:19:38.033Z,51.916504
2023-05-17T10:20:46.546Z,48.040771
2023-05-17T10:21:55.248Z,50.891113
2023-05-17T10:23:05.883Z,51.568604
2023-05-17T10:24:14.543Z,50.366211
2023-05-17T10:25:24.228Z,49.963379
2023-05-17T10:26:33.888Z,48.864746
2023-05-17T10:27:43.524Z,49.389648
2023-05-17T10:28:53.312Z,50.964355
2023-05-17T10:30:03.020Z,49.761963
2023-05-17T10:31:11.669Z,51.464844
2023-05-17T10:32:20.292Z,52.044678
2023-05-17T10:33:30.051Z,49.688721
2023-05-17T10:34:38.663Z,50.213623
2023-05-17T10:35:48.322Z,50.689697
2023-05-17T10:36:56.957Z,50.714111
2023-05-17T10:38:04.726Z,49.932861
2023-05-17T10:39:14.422Z,51.538086
2023-05-17T10:40:24.113Z,49.560547
2023-05-17T10:41:32.764Z,48.956299
2023-05-17T10:42:42.459Z,49.761963
2023-05-17T10:43:51.117Z,50.439453
2023-05-17T10:45:00.800Z,50.036621
2023-05-17T10:46:09.453Z,50.714111
2023-05-17T10:47:17.141Z,53.094482
2023-05-17T10:48:26.897Z,51.116943
2023-05-17T10:49:35.500Z,51.641846
2023-05-17T10:50:54.236Z,50.134277
2023-05-17T10:51:55.803Z,52.11792
2023-05-17T10:53:04.506Z,50.616455
2023-05-17T10:54:14.210Z,49.810791
2023-05-17T10:55:22.848Z,49.389648
2023-05-17T10:56:31.492Z,51.77002
2023-05-17T10:58:50.876Z,47.363281
2023-05-17T10:59:59.516Z,47.485352
2023-05-17T11:01:08.150Z,47.961426
2023-05-17T11:02:16.779Z,45.837402
2023-05-17T11:03:26.462Z,45.861816
2023-05-17T11:04:34.137Z,46.435547
2023-05-17T11:05:43.762Z,46.258545
2023-05-17T11:06:53.410Z,46.636963
2023-05-17T11:08:02.061Z,46.716309
2023-05-17T11:09:10.707Z,47.094727
2023-05-17T11:10:19.403Z,48.291016
2023-05-17T11:11:29.060Z,49.914551
2023-05-17T11:12:40.333Z,49.743652
2023-05-17T11:13:48.360Z,48.54126
2023-05-17T11:14:57.055Z,48.291016
2023-05-17T11:16:06.700Z,48.791504
2023-05-17T11:17:15.385Z,47.271729
2023-05-17T11:18:30.632Z,48.321533
2023-05-17T11:19:35.768Z,44.732666
2023-05-17T11:20:44.523Z,44.40918
2023-05-17T11:21:54.081Z,43.933105
2023-05-17T11:23:01.760Z,44.927979
2023-05-17T11:24:09.410Z,44.775391
2023-05-17T11:25:19.055Z,45.770264
2023-05-17T11:26:27.756Z,47.918701
2023-05-17T11:27:37.445Z,47.283936
2023-05-17T11:28:46.064Z,48.010254
2023-05-17T11:29:55.713Z,48.876953
2023-05-17T11:31:05.525Z,50.384521
2023-05-17T11:32:15.094Z,50.134277
2023-05-17T11:33:32.719Z,50.006104
2023-05-17T11:34:35.444Z,49.127197
2023-05-17T11:35:45.023Z,49.951172
2023-05-17T11:36:54.741Z,49.353027
2023-05-17T11:38:04.430Z,49.102783
2023-05-17T11:39:13.056Z,48.675537
2023-05-17T11:40:22.786Z,48.33374
2023-05-17T11:41:30.461Z,46.325684
2023-05-17T11:42:39.189Z,44.799805
2023-05-17T11:43:48.839Z,45.056152
2023-05-17T11:44:57.466Z,45.037842
2023-05-17T11:46:06.190Z,41.412354
2023-05-17T11:47:14.898Z,41.992188
2023-05-17T11:48:24.555Z,41.894531
2023-05-17T11:49:36.045Z,41.394043
2023-05-17T11:50:43.825Z,40.911865
2023-05-17T11:51:51.495Z,41.394043
2023-05-17T11:53:01.149Z,41.552734
2023-05-17T11:54:09.785Z,40.014648
2023-05-17T11:55:18.468Z,40.258789
2023-05-17T11:56:35.861Z,37.982178
2023-05-17T11:57:38.288Z,38.562012
2023-05-17T11:58:46.374Z,37.286377
2023-05-17T11:59:56.055Z,40.057373
2023-05-17T12:01:03.691Z,38.543701
2023-05-17T12:02:13.345Z,39.660645
2023-05-17T12:03:22.164Z,39.581299
2023-05-17T12:04:33.248Z,39.160156
2023-05-17T12:05:40.377Z,39.556885
2023-05-17T12:06:49.103Z,40.673828
2023-05-17T12:07:58.695Z,39.837646
2023-05-17T12:09:06.371Z,40.014648
2023-05-17T12:10:15.030Z,40.39917
2023-05-17T12:11:24.695Z,37.939453
2023-05-17T12:12:34.363Z,39.221191
2023-05-17T12:13:43.047Z,37.768555
2023-05-17T12:14:51.686Z,38.842773
2023-05-17T12:16:01.343Z,38.928223
2023-05-17T12:17:10.970Z,36.981201
2023-05-17T12:18:19.775Z,37.677002
2023-05-17T12:19:28.474Z,38.62915
2023-05-17T12:20:38.009Z,39.0625
2023-05-17T12:21:47.723Z,39.361572
2023-05-17T12:22:57.438Z,40.100098
2023-05-17T12:24:05.145Z,40.39917
2023-05-17T12:25:14.797Z,40.41748
2023-05-17T12:26:24.443Z,39.221191
2023-05-17T12:27:33.092Z,41.113281
2023-05-17T12:28:41.795Z,39.556885
2023-05-17T12:29:51.462Z,40.472412
2023-05-17T12:31:00.160Z,40.313721
2023-05-17T12:32:09.846Z,42.39502
2023-05-17T12:33:18.679Z,40.29541
2023-05-17T12:34:28.175Z,41.656494
2023-05-17T12:35:36.846Z,40.39917
2023-05-17T12:36:45.625Z,40.478516
2023-05-17T12:37:55.343Z,40.380859
2023-05-17T12:39:03.979Z,42.614746
2023-05-17T12:40:11.746Z,42.950439
2023-05-17T12:41:20.288Z,43.011475
2023-05-17T12:42:29.952Z,43.756104
2023-05-17T12:43:38.596Z,46.679688
2023-05-17T12:44:48.260Z,44.799805
2023-05-17T12:45:56.926Z,44.781494
2023-05-17T12:47:06.626Z,44.75708
2023-05-17T12:48:15.400Z,44.238281
2023-05-17T12:49:22.920Z,44.036865
2023-05-17T12:50:32.638Z,44.238281
2023-05-17T12:51:42.360Z,42.41333
2023-05-17T12:52:52.010Z,43.835449
2023-05-17T12:54:00.655Z,44.158936
2023-05-17T12:55:10.300Z,43.95752
2023-05-17T12:56:19.994Z,44.238281
2023-05-17T12:57:27.620Z,43.615723
2023-05-17T12:58:37.270Z,43.09082
2023-05-17T12:59:46.901Z,41.851807
2023-05-17T13:00:56.570Z,42.510986
2023-05-17T13:02:04.250Z,41.094971
2023-05-17T13:03:12.890Z,38.482666
2023-05-17T13:04:21.529Z,39.208984
2023-05-17T13:05:31.211Z,38.62915
2023-05-17T13:06:40.969Z,39.941406
2023-05-17T13:07:49.560Z,41.174316
2023-05-17T13:08:59.293Z,39.898682
2023-05-17T13:10:09.032Z,39.837646
2023-05-17T13:11:18.732Z,40.655518
2023-05-17T13:12:28.375Z,41.595459
2023-05-17T13:13:37.081Z,42.932129